createdAt,value
2018-01-03T00:01:35.681Z,64.13
2018-01-03T00:04:02.072Z,64.97
2018-01-03T00:06:28.467Z,62.73
2018-01-03T00:08:54.837Z,69.37
2018-01-03T00:11:21.276Z,70.30
2018-01-03T00:13:47.624Z,74.67
2018-01-03T00:16:14.028Z,67.77
2018-01-03T00:18:40.424Z,67.80
2018-01-03T00:21:06.851Z,66.93
2018-01-03T00:23:33.311Z,66.27
2018-01-03T00:25:59.749Z,62.77
2018-01-03T00:28:26.151Z,62.53
2018-01-03T00:30:52.587Z,57.27
2018-01-03T00:33:18.988Z,59.80
2018-01-03T00:35:45.399Z,57.80
2018-01-03T00:38:11.831Z,59.40
2018-01-03T00:40:38.224Z,56.93
2018-01-03T00:43:04.624Z,58.57
2018-01-03T00:45:31.052Z,56.50
2018-01-03T00:47:57.505Z,56.63
2018-01-03T00:50:23.900Z,47.43
2018-01-03T00:52:50.310Z,43.13
2018-01-03T00:55:16.698Z,43.10
2018-01-03T00:57:43.138Z,42.60
2018-01-03T01:00:09.639Z,43.83
2018-01-03T01:02:36.148Z,42.23
2018-01-03T01:05:02.588Z,41.93
2018-01-03T01:07:29.074Z,43.27
2018-01-03T01:09:55.519Z,44.70
2018-01-03T01:12:21.905Z,43.50
2018-01-03T01:14:48.271Z,47.00
2018-01-03T01:17:14.624Z,48.23
2018-01-03T01:19:41.028Z,46.77
2018-01-03T01:22:07.459Z,48.40
2018-01-03T01:24:33.855Z,50.07
2018-01-03T01:27:00.245Z,49.67
2018-01-03T01:29:26.731Z,50.07
2018-01-03T01:31:53.183Z,49.30
2018-01-03T01:34:19.563Z,49.60
2018-01-03T01:36:45.962Z,48.17
2018-01-03T01:39:12.308Z,47.77
2018-01-03T01:41:38.831Z,45.50
2018-01-03T01:44:05.221Z,45.47
2018-01-03T01:46:31.627Z,44.57
2018-01-03T01:49:07.206Z,45.47
2018-01-03T01:51:33.660Z,44.37
2018-01-03T01:54:00.096Z,43.07
2018-01-03T01:56:26.630Z,44.30
2018-01-03T01:58:52.967Z,44.63
2018-01-03T02:01:19.351Z,43.73
2018-01-03T02:03:45.831Z,45.93
2018-01-03T02:06:12.219Z,45.97
2018-01-03T02:08:38.563Z,44.23
2018-01-03T02:11:05.032Z,46.63
2018-01-03T02:13:31.462Z,45.50
2018-01-03T02:15:57.945Z,48.20
2018-01-03T02:18:24.339Z,48.00
2018-01-03T02:20:50.694Z,49.43
2018-01-03T02:23:17.100Z,51.10
2018-01-03T02:25:43.476Z,50.80
2018-01-03T02:28:09.907Z,52.40
2018-01-03T02:30:36.287Z,53.20
2018-01-03T02:33:02.703Z,54.70
2018-01-03T02:35:29.139Z,56.27
2018-01-03T02:37:55.590Z,56.27
2018-01-03T02:40:22.087Z,57.00
2018-01-03T02:42:48.492Z,57.50
2018-01-03T02:45:14.907Z,58.10
2018-01-03T02:47:41.332Z,61.53
2018-01-03T02:50:07.756Z,60.77
2018-01-03T02:52:34.139Z,58.37
2018-01-03T02:55:00.610Z,57.97
2018-01-03T02:57:26.998Z,56.03
2018-01-03T02:59:53.398Z,53.17
2018-01-03T03:02:19.823Z,51.10
2018-01-03T03:04:46.198Z,48.80
2018-01-03T03:07:12.580Z,44.57
2018-01-03T03:09:38.990Z,42.00
2018-01-03T03:12:05.421Z,35.07
2018-01-03T03:14:31.894Z,33.57
2018-01-03T03:16:58.339Z,32.17
2018-01-03T03:19:24.837Z,36.50
2018-01-03T03:21:51.267Z,38.10
2018-01-03T03:24:17.723Z,40.87
2018-01-03T03:26:44.157Z,45.07
2018-01-03T03:29:10.555Z,46.93
2018-01-03T03:31:37.057Z,49.07
2018-01-03T03:34:03.408Z,49.10
2018-01-03T03:36:29.808Z,48.47
2018-01-03T03:38:56.599Z,48.23
2018-01-03T03:41:22.991Z,44.60
2018-01-03T03:43:49.388Z,42.13
2018-01-03T03:46:15.911Z,43.43
2018-01-03T03:48:42.408Z,40.63
2018-01-03T03:51:08.808Z,39.57
2018-01-03T03:53:35.240Z,39.87
2018-01-03T03:56:01.591Z,34.50
2018-01-03T03:58:27.959Z,33.83
2018-01-03T04:00:54.442Z,29.13
2018-01-03T04:03:20.895Z,27.43
2018-01-03T04:05:47.315Z,24.20
2018-01-03T04:08:13.749Z,21.77
2018-01-03T04:10:40.171Z,17.10
2018-01-03T04:13:06.615Z,15.00
2018-01-03T04:15:33.000Z,13.63
2018-01-03T04:17:59.349Z,13.53
2018-01-03T04:20:25.885Z,12.73
2018-01-03T04:22:52.291Z,12.87
2018-01-03T04:25:18.627Z,12.70
2018-01-03T04:27:45.029Z,12.13
2018-01-03T04:30:11.495Z,12.60
2018-01-03T04:32:37.847Z,11.53
2018-01-03T04:35:04.216Z,9.67
2018-01-03T04:37:30.640Z,10.60
2018-01-03T04:39:57.046Z,10.57
2018-01-03T04:42:23.494Z,9.57
2018-01-03T04:44:49.888Z,7.80
2018-01-03T04:47:16.296Z,7.63
2018-01-03T04:49:42.651Z,6.20
2018-01-03T04:52:09.034Z,5.63
2018-01-03T04:54:35.461Z,5.03
2018-01-03T04:57:01.811Z,4.03
2018-01-03T04:59:28.223Z,4.77
2018-01-03T05:01:54.805Z,3.80
2018-01-03T05:04:21.431Z,5.20
2018-01-03T05:06:48.021Z,5.43
2018-01-03T05:09:14.454Z,6.13
2018-01-03T05:11:40.823Z,7.33
2018-01-03T05:14:07.244Z,8.73
2018-01-03T05:16:33.645Z,8.10
2018-01-03T05:19:00.013Z,6.83
2018-01-03T05:21:26.429Z,5.00
2018-01-03T05:23:52.775Z,4.23
2018-01-03T05:26:20.224Z,3.60
2018-01-03T05:28:46.632Z,3.87
2018-01-03T05:31:13.047Z,3.27
2018-01-03T05:33:39.403Z,3.90
2018-01-03T05:36:05.951Z,3.30
2018-01-03T05:38:32.318Z,4.03
2018-01-03T05:40:58.891Z,3.87
2018-01-03T05:43:25.283Z,4.93
2018-01-03T05:45:51.715Z,3.77
2018-01-03T05:48:18.180Z,3.90
2018-01-03T05:50:44.603Z,3.67
2018-01-03T05:53:10.983Z,3.30
2018-01-03T05:55:37.355Z,4.30
2018-01-03T05:58:03.804Z,3.73
2018-01-03T06:00:30.263Z,4.57
2018-01-03T06:02:56.660Z,4.50
2018-01-03T06:05:23.236Z,4.40
2018-01-03T06:07:49.615Z,4.53
2018-01-03T06:10:15.995Z,9.10
2018-01-03T06:12:42.536Z,5.97
2018-01-03T06:15:08.895Z,4.43
2018-01-03T06:17:35.296Z,5.00
2018-01-03T06:20:01.707Z,3.97
2018-01-03T06:22:28.083Z,4.60
2018-01-03T06:24:54.596Z,6.73
2018-01-03T06:27:21.109Z,4.33
2018-01-03T06:29:47.476Z,4.40
2018-01-03T06:32:13.955Z,3.67
2018-01-03T06:34:40.440Z,5.40
2018-01-03T06:37:06.942Z,4.93
2018-01-03T06:39:33.366Z,4.30
2018-01-03T06:41:59.822Z,5.00
2018-01-03T06:44:26.211Z,10.00
2018-01-03T06:46:52.617Z,7.27
2018-01-03T06:49:19.043Z,4.80
2018-01-03T06:51:45.422Z,4.30
2018-01-03T06:54:11.847Z,5.00
2018-01-03T06:56:38.258Z,4.70
2018-01-03T06:59:04.623Z,9.43
2018-01-03T07:01:31.027Z,7.90
2018-01-03T07:03:59.305Z,7.40
2018-01-03T07:06:25.743Z,7.93
2018-01-03T07:08:52.296Z,6.43
2018-01-03T07:11:18.732Z,4.33
2018-01-03T07:13:45.087Z,4.33
2018-01-03T07:16:11.467Z,4.37
2018-01-03T07:18:37.968Z,8.13
2018-01-03T07:21:04.348Z,4.70
2018-01-03T07:23:30.799Z,5.47
2018-01-03T07:25:57.215Z,5.47
2018-01-03T07:28:23.673Z,12.37
2018-01-03T07:30:50.087Z,5.17
2018-01-03T07:33:16.494Z,10.23
2018-01-03T07:35:42.880Z,3.93
2018-01-03T07:38:09.257Z,4.30
2018-01-03T07:40:35.840Z,4.43
2018-01-03T07:43:02.286Z,4.70
2018-01-03T07:45:28.696Z,3.60
2018-01-03T07:47:55.174Z,5.63
2018-01-03T07:50:21.554Z,5.93
2018-01-03T07:52:47.939Z,4.87
2018-01-03T07:55:14.372Z,4.77
2018-01-03T07:57:40.776Z,5.60
2018-01-03T08:00:07.198Z,4.77
2018-01-03T08:02:33.597Z,4.10
2018-01-03T08:05:00.748Z,4.10
2018-01-03T08:07:27.227Z,5.37
2018-01-03T08:09:53.911Z,5.20
2018-01-03T08:12:20.367Z,5.27
2018-01-03T08:14:46.743Z,5.00
2018-01-03T08:17:13.335Z,4.80
2018-01-03T08:19:39.681Z,5.90
2018-01-03T08:22:06.163Z,3.57
2018-01-03T08:24:32.593Z,5.67
2018-01-03T08:26:59.035Z,4.90
2018-01-03T08:29:25.472Z,6.97
2018-01-03T08:31:51.924Z,5.87
2018-01-03T08:34:18.430Z,7.37
2018-01-03T08:36:44.830Z,6.43
2018-01-03T08:39:11.275Z,5.47
2018-01-03T08:41:37.647Z,5.30
2018-01-03T08:44:04.056Z,5.63
2018-01-03T08:46:30.595Z,5.67
2018-01-03T08:48:57.007Z,6.30
2018-01-03T08:51:23.376Z,5.90
2018-01-03T08:53:49.799Z,4.60
2018-01-03T08:56:16.255Z,4.23
2018-01-03T08:58:42.724Z,5.17
2018-01-03T09:01:09.171Z,5.03
2018-01-03T09:03:35.627Z,4.50
2018-01-03T09:06:02.039Z,3.33
2018-01-03T09:08:28.443Z,3.40
2018-01-03T09:10:54.836Z,3.73
2018-01-03T09:13:21.314Z,3.70
2018-01-03T09:15:47.891Z,2.47
2018-01-03T09:18:14.267Z,3.63
2018-01-03T09:20:40.741Z,4.20
2018-01-03T09:23:07.424Z,3.27
2018-01-03T09:25:33.959Z,4.53
2018-01-03T09:28:00.344Z,4.00
2018-01-03T09:30:26.819Z,3.73
2018-01-03T09:32:53.207Z,4.20
2018-01-03T09:35:19.640Z,3.60
2018-01-03T09:37:46.080Z,4.87
2018-01-03T09:40:12.562Z,3.43
2018-01-03T09:42:39.018Z,3.40
2018-01-03T09:45:05.523Z,3.50
2018-01-03T09:47:31.938Z,3.63
2018-01-03T09:49:58.292Z,3.30
2018-01-03T09:52:24.744Z,3.37
2018-01-03T09:54:51.167Z,3.67
2018-01-03T09:57:17.520Z,3.30
2018-01-03T09:59:44.049Z,3.30
2018-01-03T10:02:10.526Z,3.27
2018-01-03T10:04:36.869Z,3.30
2018-01-03T10:07:03.580Z,3.23
2018-01-03T10:09:30.074Z,3.80
2018-01-03T10:11:56.503Z,4.23
2018-01-03T10:14:22.920Z,3.60
2018-01-03T10:16:49.320Z,3.90
2018-01-03T10:19:15.724Z,4.13
2018-01-03T10:21:42.186Z,4.50
2018-01-03T10:24:08.668Z,3.70
2018-01-03T10:26:35.207Z,4.37
2018-01-03T10:29:01.667Z,4.30
2018-01-03T10:31:28.427Z,4.30
2018-01-03T10:33:54.820Z,4.40
2018-01-03T10:36:21.260Z,3.87
2018-01-03T10:38:47.675Z,4.87
2018-01-03T10:41:14.074Z,3.60
2018-01-03T10:43:40.503Z,4.70
2018-01-03T10:46:06.879Z,4.30
2018-01-03T10:48:33.247Z,5.00
2018-01-03T10:50:59.673Z,4.37
2018-01-03T10:53:26.064Z,4.27
2018-01-03T10:55:52.447Z,3.83
2018-01-03T10:58:18.909Z,4.00
2018-01-03T11:00:45.472Z,3.47
2018-01-03T11:03:11.892Z,3.03
2018-01-03T11:05:38.419Z,4.33
2018-01-03T11:08:04.869Z,3.50
2018-01-03T11:10:31.303Z,3.57
2018-01-03T11:12:57.940Z,5.30
2018-01-03T11:15:24.301Z,3.90
2018-01-03T11:17:50.675Z,3.60
2018-01-03T11:20:17.052Z,4.13
2018-01-03T11:22:43.483Z,3.97
2018-01-03T11:25:10.191Z,5.10
2018-01-03T11:27:36.624Z,4.00
2018-01-03T11:30:03.048Z,4.17
2018-01-03T11:32:29.581Z,4.97
2018-01-03T11:34:56.027Z,4.40
2018-01-03T11:37:22.472Z,5.13
2018-01-03T11:39:48.866Z,4.67
2018-01-03T11:42:15.979Z,4.63
2018-01-03T11:44:42.428Z,4.07
2018-01-03T11:47:09.104Z,4.03
2018-01-03T11:49:35.627Z,4.10
2018-01-03T11:52:02.091Z,5.97
2018-01-03T11:54:29.577Z,6.27
2018-01-03T11:56:56.307Z,5.53
2018-01-03T11:59:22.735Z,5.17
2018-01-03T12:01:49.259Z,5.47
2018-01-03T12:04:15.895Z,3.80
2018-01-03T12:06:42.273Z,3.13
2018-01-03T12:09:08.760Z,3.73
2018-01-03T12:11:35.336Z,4.33
2018-01-03T12:14:01.699Z,4.03
2018-01-03T12:16:28.079Z,4.03
2018-01-03T12:18:54.623Z,4.40
2018-01-03T12:21:21.239Z,4.70
2018-01-03T12:23:47.817Z,4.80
2018-01-03T12:26:14.303Z,5.00
2018-01-03T12:28:40.762Z,4.90
2018-01-03T12:31:07.327Z,4.33
2018-01-03T12:33:33.844Z,4.50
2018-01-03T12:36:00.268Z,3.40
2018-01-03T12:38:26.779Z,4.00
2018-01-03T12:40:53.271Z,4.57
2018-01-03T12:43:19.703Z,3.87
2018-01-03T12:45:46.112Z,4.40
2018-01-03T12:48:12.511Z,5.27
2018-01-03T12:50:38.967Z,5.33
2018-01-03T12:53:05.345Z,6.60
2018-01-03T12:55:31.867Z,5.43
2018-01-03T12:57:58.240Z,5.43
2018-01-03T13:00:24.595Z,3.50
2018-01-03T13:02:51.023Z,5.33
2018-01-03T13:05:17.379Z,3.97
2018-01-03T13:07:43.719Z,4.53
2018-01-03T13:10:10.191Z,3.83
2018-01-03T13:12:36.655Z,4.60
2018-01-03T13:15:03.091Z,3.73
2018-01-03T13:17:29.531Z,4.80
2018-01-03T13:19:55.919Z,5.10
2018-01-03T13:22:22.303Z,5.00
2018-01-03T13:24:48.735Z,4.50
2018-01-03T13:27:15.109Z,5.67
2018-01-03T13:29:41.552Z,4.97
2018-01-03T13:32:07.963Z,5.90
2018-01-03T13:34:34.360Z,5.93
2018-01-03T13:37:00.734Z,7.07
2018-01-03T13:39:27.198Z,4.73
2018-01-03T13:41:53.551Z,5.23
2018-01-03T13:44:19.891Z,4.57
2018-01-03T13:46:46.324Z,4.93
2018-01-03T13:49:12.734Z,5.83
2018-01-03T13:51:39.132Z,5.60
2018-01-03T13:54:05.820Z,5.43
2018-01-03T13:56:33.289Z,6.10
2018-01-03T13:58:59.715Z,5.13
2018-01-03T14:01:26.224Z,5.53
2018-01-03T14:03:52.609Z,5.07
2018-01-03T14:06:19.090Z,4.80
2018-01-03T14:08:45.585Z,5.23
2018-01-03T14:11:12.124Z,9.10
2018-01-03T14:13:39.808Z,8.10
2018-01-03T14:16:06.324Z,8.10
2018-01-03T14:18:32.718Z,7.00
2018-01-03T14:20:59.135Z,8.33
2018-01-03T14:23:25.627Z,6.10
2018-01-03T14:25:52.198Z,5.77
2018-01-03T14:28:18.659Z,6.17
2018-01-03T14:30:45.128Z,5.73
2018-01-03T14:33:11.792Z,5.97
2018-01-03T14:35:38.211Z,5.90
2018-01-03T14:38:04.615Z,6.40
2018-01-03T14:40:31.065Z,7.93
2018-01-03T14:42:57.571Z,11.80
2018-01-03T14:45:24.102Z,16.27
2018-01-03T14:47:50.514Z,21.30
2018-01-03T14:50:16.936Z,18.63
2018-01-03T14:52:43.714Z,16.70
2018-01-03T14:55:10.210Z,18.50
2018-01-03T14:57:36.667Z,16.33
2018-01-03T15:00:03.151Z,15.27
2018-01-03T15:02:29.627Z,16.17
2018-01-03T15:04:55.999Z,17.53
2018-01-03T15:07:22.467Z,19.27
2018-01-03T15:09:48.814Z,28.00
2018-01-03T15:12:15.379Z,33.80
2018-01-03T15:14:41.868Z,36.23
2018-01-03T15:17:08.267Z,37.87
2018-01-03T15:19:34.679Z,37.77
2018-01-03T15:22:01.092Z,37.60
2018-01-03T15:24:27.503Z,36.50
2018-01-03T15:26:53.902Z,33.27
2018-01-03T15:29:20.371Z,34.43
2018-01-03T15:31:46.784Z,34.93
2018-01-03T15:34:13.166Z,38.03
2018-01-03T15:36:39.640Z,38.07
2018-01-03T15:39:06.087Z,38.50
2018-01-03T15:41:32.465Z,39.83
2018-01-03T15:44:00.168Z,40.20
2018-01-03T15:46:26.547Z,41.27
2018-01-03T15:48:52.930Z,41.03
2018-01-03T15:51:19.960Z,39.63
2018-01-03T15:53:46.368Z,39.63
2018-01-03T15:56:12.873Z,39.40
2018-01-03T15:58:39.305Z,43.13
2018-01-03T16:01:05.730Z,48.53
2018-01-03T16:03:32.117Z,57.83
2018-01-03T16:05:58.776Z,68.73
2018-01-03T16:08:25.331Z,84.03
2018-01-03T16:10:52.523Z,92.10
2018-01-03T16:13:18.987Z,95.97
2018-01-03T16:15:45.420Z,107.40
2018-01-03T16:18:15.194Z,108.20
2018-01-03T16:20:42.026Z,106.83
2018-01-03T16:23:08.512Z,107.90
2018-01-03T16:25:34.936Z,106.60
2018-01-03T16:28:01.417Z,111.90
2018-01-03T16:30:27.819Z,112.20
2018-01-03T16:32:54.288Z,107.47
2018-01-03T16:35:20.700Z,111.60
2018-01-03T16:37:47.088Z,111.87
2018-01-03T16:40:14.375Z,118.00
2018-01-03T16:42:40.856Z,121.00
2018-01-03T16:45:07.248Z,118.77
2018-01-03T16:47:33.647Z,124.10
2018-01-03T16:50:00.189Z,123.63
2018-01-03T16:52:32.710Z,115.67
2018-01-03T16:54:59.184Z,109.00
2018-01-03T16:57:25.662Z,112.63
2018-01-03T16:59:52.019Z,120.30
2018-01-03T17:02:18.427Z,127.33
2018-01-03T17:04:45.007Z,133.70
2018-01-03T17:07:11.467Z,130.70
2018-01-03T17:09:37.834Z,125.40
2018-01-03T17:12:04.259Z,112.10
2018-01-03T17:14:30.625Z,112.23
2018-01-03T17:16:56.995Z,102.07
2018-01-03T17:19:23.441Z,102.23
2018-01-03T17:21:49.888Z,107.77
2018-01-03T17:24:16.287Z,113.53
2018-01-03T17:26:42.700Z,119.43
2018-01-03T17:29:09.087Z,124.23
2018-01-03T17:31:35.595Z,125.53
2018-01-03T17:34:02.075Z,129.17
2018-01-03T17:36:28.487Z,130.30
2018-01-03T17:38:55.071Z,134.03
2018-01-03T17:41:21.478Z,126.47
2018-01-03T17:43:47.867Z,128.93
2018-01-03T17:46:14.229Z,129.43
2018-01-03T17:48:40.727Z,124.90
2018-01-03T17:51:07.167Z,126.50
2018-01-03T17:53:33.571Z,129.77
2018-01-03T17:56:00.022Z,138.23
2018-01-03T17:58:26.440Z,150.63
2018-01-03T18:00:52.835Z,139.97
2018-01-03T18:03:19.267Z,141.83
2018-01-03T18:05:45.711Z,148.87
2018-01-03T18:08:12.139Z,122.83
2018-01-03T18:10:38.604Z,119.20
2018-01-03T18:13:04.975Z,108.90
2018-01-03T18:15:31.383Z,103.03
2018-01-03T18:17:57.759Z,106.50
2018-01-03T18:20:24.168Z,100.93
2018-01-03T18:22:50.571Z,94.97
2018-01-03T18:25:16.975Z,91.63
2018-01-03T18:27:43.430Z,93.47
2018-01-03T18:30:09.843Z,101.37
2018-01-03T18:32:36.335Z,96.23
2018-01-03T18:35:02.763Z,86.73
2018-01-03T18:37:29.400Z,81.30
2018-01-03T18:39:56.067Z,83.87
2018-01-03T18:42:22.436Z,86.23
2018-01-03T18:44:48.823Z,86.07
2018-01-03T18:47:15.279Z,84.07
2018-01-03T18:49:41.666Z,86.77
2018-01-03T18:52:08.068Z,87.10
2018-01-03T18:54:34.576Z,88.13
2018-01-03T18:57:01.036Z,88.90
2018-01-03T18:59:27.516Z,85.60
2018-01-03T19:01:53.933Z,87.03
2018-01-03T19:04:20.388Z,92.00
2018-01-03T19:06:46.787Z,102.57
2018-01-03T19:09:13.202Z,103.57
2018-01-03T19:11:39.612Z,113.80
2018-01-03T19:14:05.945Z,124.60
2018-01-03T19:16:32.375Z,123.50
2018-01-03T19:18:58.788Z,127.63
2018-01-03T19:21:25.219Z,140.33
2018-01-03T19:23:51.623Z,148.83
2018-01-03T19:26:18.036Z,144.30
2018-01-03T19:28:44.440Z,144.93
2018-01-03T19:31:10.883Z,144.90
2018-01-03T19:33:37.229Z,140.23
2018-01-03T19:36:03.660Z,128.60
2018-01-03T19:38:30.094Z,130.23
2018-01-03T19:40:56.503Z,128.33
2018-01-03T19:43:22.892Z,130.87
2018-01-03T19:45:49.303Z,121.07
2018-01-03T19:48:15.711Z,96.17
2018-01-03T19:50:42.134Z,73.33
2018-01-03T19:53:08.574Z,65.80
2018-01-03T19:55:35.037Z,57.50
2018-01-03T19:58:01.427Z,59.00
2018-01-03T20:00:27.924Z,60.00
2018-01-03T20:02:54.400Z,66.00
2018-01-03T20:05:20.783Z,69.57
2018-01-03T20:07:47.218Z,75.80
2018-01-03T20:10:13.634Z,67.77
2018-01-03T20:12:39.984Z,69.97
2018-01-03T20:15:06.395Z,65.53
2018-01-03T20:17:32.779Z,63.53
2018-01-03T20:19:59.159Z,63.40
2018-01-03T20:22:25.586Z,63.40
2018-01-03T20:24:52.039Z,65.40
2018-01-03T20:27:18.426Z,71.27
2018-01-03T20:29:44.855Z,71.07
2018-01-03T20:32:11.223Z,70.97
2018-01-03T20:34:37.626Z,75.80
2018-01-03T20:37:04.065Z,78.57
2018-01-03T20:39:30.447Z,75.83
2018-01-03T20:41:56.859Z,72.93
2018-01-03T20:44:23.276Z,75.50
2018-01-03T20:46:49.683Z,78.47
2018-01-03T20:49:16.631Z,87.20
2018-01-03T20:51:43.148Z,94.63
2018-01-03T20:54:09.535Z,88.70
2018-01-03T20:56:35.948Z,90.07
2018-01-03T20:59:02.367Z,97.53
2018-01-03T21:01:28.759Z,92.77
2018-01-03T21:03:55.135Z,90.63
2018-01-03T21:06:21.575Z,90.90
2018-01-03T21:08:47.960Z,89.43
2018-01-03T21:11:14.336Z,91.87
2018-01-03T21:13:40.736Z,86.77
2018-01-03T21:16:07.178Z,92.30
2018-01-03T21:18:33.598Z,94.03
2018-01-03T21:21:00.022Z,97.53
2018-01-03T21:23:26.399Z,104.50
2018-01-03T21:25:52.787Z,98.83
2018-01-03T21:28:19.231Z,89.90
2018-01-03T21:30:45.907Z,90.50
2018-01-03T21:33:12.306Z,83.00
2018-01-03T21:35:38.739Z,87.47
2018-01-03T21:38:05.115Z,84.03
2018-01-03T21:40:31.507Z,84.93
2018-01-03T21:42:57.948Z,87.03
2018-01-03T21:45:24.371Z,87.97
2018-01-03T21:47:50.759Z,90.30
2018-01-03T21:50:17.163Z,95.83
2018-01-03T21:52:43.572Z,96.70
2018-01-03T21:55:09.926Z,90.77
2018-01-03T21:57:36.423Z,84.70
2018-01-03T22:00:02.815Z,75.00
2018-01-03T22:02:29.253Z,57.73
2018-01-03T22:04:55.699Z,50.53
2018-01-03T22:07:22.149Z,43.73
2018-01-03T22:09:48.549Z,44.33
2018-01-03T22:12:15.051Z,36.87
2018-01-03T22:14:41.471Z,33.80
2018-01-03T22:17:07.880Z,33.07
2018-01-03T22:19:34.286Z,33.43
2018-01-03T22:22:00.687Z,34.30
2018-01-03T22:24:27.072Z,32.43
2018-01-03T22:26:53.530Z,31.03
2018-01-03T22:29:19.920Z,32.53
2018-01-03T22:31:46.294Z,32.73
2018-01-03T22:34:12.778Z,31.40
2018-01-03T22:36:39.212Z,32.97
2018-01-03T22:39:05.583Z,33.30
2018-01-03T22:41:32.039Z,32.43
2018-01-03T22:43:58.414Z,34.10
2018-01-03T22:46:24.988Z,36.53
2018-01-03T22:48:51.418Z,34.33
2018-01-03T22:51:17.771Z,35.37
2018-01-03T22:53:44.199Z,33.10
2018-01-03T22:56:10.608Z,34.73
2018-01-03T22:58:37.009Z,38.50
2018-01-03T23:01:03.419Z,36.07
2018-01-03T23:03:29.898Z,38.37
2018-01-03T23:05:56.251Z,37.27
2018-01-03T23:08:22.679Z,37.83
2018-01-03T23:10:49.083Z,38.43
2018-01-03T23:13:15.478Z,42.50
2018-01-03T23:15:41.891Z,54.33
2018-01-03T23:18:08.332Z,55.20
2018-01-03T23:20:34.727Z,53.53
2018-01-03T23:23:01.109Z,56.83
2018-01-03T23:25:27.516Z,56.13
2018-01-03T23:27:54.023Z,60.20
2018-01-03T23:30:20.404Z,58.70
2018-01-03T23:32:46.847Z,59.03
2018-01-03T23:35:13.225Z,52.97
2018-01-03T23:37:39.671Z,46.07
2018-01-03T23:40:06.099Z,42.67
2018-01-03T23:42:32.521Z,41.67
2018-01-03T23:44:58.907Z,39.73
2018-01-03T23:47:25.368Z,38.57
2018-01-03T23:49:51.759Z,37.37
2018-01-03T23:52:18.104Z,38.17
2018-01-03T23:54:44.523Z,39.03
2018-01-03T23:57:10.935Z,34.77
2018-01-03T23:59:37.651Z,29.93
